| Date | Time | Temp. (oF) | Dew Point (oF) | Rel. Hum. (%) | Press. (in.) | Wind Dir. | Wind Speed (mph) | Hourly Rainfall (in.) |
|
|---|---|---|---|---|---|---|---|---|---|
| 1 | 02/14 | 00:00 | 27 | 18 | 71 | 30.03 | NW | 3 | 0.00 |
| 2 | 02/13 | 23:00 | 29 | 19 | 66 | 30.05 | NW | 2 | 0.00 |
| 3 | 02/13 | 22:00 | 29 | 20 | 69 | 30.06 | NW | 3 | 0.00 |
| 4 | 02/13 | 21:00 | 30 | 19 | 64 | 30.06 | NW | 1 | 0.00 |
| 5 | 02/13 | 20:00 | 32 | 19 | 60 | 30.05 | NW | 8 | 0.00 |
| 6 | 02/13 | 19:00 | 32 | 20 | 61 | 30.04 | NW | 2 | 0.00 |
| 7 | 02/13 | 18:00 | 33 | 20 | 59 | 30.01 | NW | 9 | 0.00 |
| 8 | 02/13 | 17:00 | 34 | 20 | 58 | 29.99 | NW | 16 | 0.00 |
| 9 | 02/13 | 16:00 | 35 | 20 | 56 | 29.97 | NW | 27 | 0.00 |
| 10 | 02/13 | 15:00 | 35 | 20 | 56 | 29.99 | NW | 21 | 0.00 |
| 11 | 02/13 | 14:00 | 36 | 20 | 53 | 29.96 | NW | 14 | 0.00 |
| 12 | 02/13 | 13:00 | 37 | 19 | 48 | 29.95 | NW | 14 | 0.00 |
| 13 | 02/13 | 12:00 | 37 | 19 | 49 | 29.97 | NW | 19 | 0.00 |
| 14 | 02/13 | 11:00 | 36 | 18 | 49 | 29.98 | NW | 13 | 0.00 |
| 15 | 02/13 | 10:00 | 34 | 16 | 48 | 29.98 | NW | 26 | 0.00 |
| 16 | 02/13 | 09:00 | 32 | 16 | 53 | 29.99 | NW | 16 | 0.00 |
| 17 | 02/13 | 08:00 | 31 | 16 | 55 | 29.96 | W | 13 | 0.00 |
| 18 | 02/13 | 07:00 | 31 | 15 | 52 | 29.92 | NW | 13 | 0.00 |
| 19 | 02/13 | 06:00 | 32 | 17 | 55 | 29.90 | NW | 11 | 0.00 |
| 20 | 02/13 | 05:00 | 33 | 18 | 56 | 29.89 | WSW | 14 | 0.00 |
| 21 | 02/13 | 04:00 | 34 | 17 | 51 | 29.85 | NW | 9 | 0.00 |
| 22 | 02/13 | 03:00 | 35 | 20 | 56 | 29.82 | NW | 13 | 0.00 |
| 23 | 02/13 | 02:00 | 36 | 22 | 58 | 29.80 | NW | 19 | 0.00 |
| 24 | 02/13 | 01:00 | 37 | 26 | 66 | 29.77 | NW | 12 | 0.00 |